Whirlwind 2 — MZDI6 — position and weather

sailwx.info

Track history (hours):
 
Tides and Currents Weather Stations Pressure Air Temp Water Temp Dewpoint Dewpoint Depression Visibility Wind Speed Wind Dir Waves Ship Positions

Whirlwind 2

Last reported at 2018-May-15 09:37 UTC. Time now 2018-Jun-19 01:28 UTC.
Position N 50°52' W 001°19'.
Warning: this ship's position is 34 days out of date.

Length 20 m.

Type: Sailing vessel. MMSI: 232006110.

Date/timePositionNaut miles runAvg speedWind from/ knotsBaromVisibWave heightAir tempDewpointWater temp
2018-May-15 09:37N 50°52' W 001°19'0 0.6
2018-May-15 09:26N 50°52' W 001°19'3 4.8
2018-May-15 08:55N 50°49' W 001°18'3 6.5
2018-May-15 08:30N 50°47' W 001°18'1 2.9
2018-May-15 07:59N 50°45' W 001°18'0 0.0
2018-May-14 15:33N 50°45' W 001°18'0 0.0
2018-May-14 15:24N 50°45' W 001°18'0 0.0
2018-May-14 15:00N 50°45' W 001°18'0 0.0
2018-May-14 14:30N 50°45' W 001°18'0 0.0
2018-May-13 07:36N 50°45' W 001°18'0 0.0
2018-May-13 07:27N 50°45' W 001°18'0 0.0
2018-May-13 07:00N 50°45' W 001°18'2 3.6
2018-May-13 06:29N 50°46' W 001°20'2 2.3
2018-May-13 05:47N 50°47' W 001°18'2 4.9
2018-May-13 05:28N 50°49' W 001°17'4 6.7
2018-May-13 04:57N 50°51' W 001°21'3 5.7
2018-May-13 04:28N 50°53' W 001°24'4 6.7
2018-May-13 03:56N 50°51' W 001°20'3 7.1
2018-May-13 03:30N 50°48' W 001°17'2 4.5
2018-May-13 03:00N 50°46' W 001°17'3 5.7
2018-May-13 02:30N 50°46' W 001°12'2 4.8
2018-May-13 02:00N 50°46' W 001°08'2 3.3
2018-May-13 01:30N 50°46' W 001°11'4 7.3
2018-May-13 01:00N 50°46' W 001°17'3 5.6
2018-May-13 00:31N 50°46' W 001°21'3 5.1
2018-May-13 00:00N 50°45' W 001°25'4 0.5
2018-May-12 16:00N 50°46' W 001°19'1 0.9
2018-May-12 15:23N 50°46' W 001°18'1 1.5
2018-May-12 14:54N 50°47' W 001°19'3 6.4
2018-May-12 14:30N 50°45' W 001°22'188 6.0
2018-May-11 07:09N 48°40' W 004°59'1 6.7
2018-May-11 07:00N 48°40' W 004°60'3 6.5
2018-May-11 06:30N 48°37' W 005°04'4 6.0
2018-May-11 05:53N 48°35' W 005°08'  
Track history (hours):
 
Tides and Currents Weather Stations Pressure Air Temp Water Temp Dewpoint Dewpoint Depression Visibility Wind Speed Wind Dir Waves Ship Positions

Whirlwind 2

Last reported at 2018-May-15 09:37 UTC. Time now 2018-Jun-19 01:28 UTC.
Position N 50°52' W 001°19'.
Warning: this ship's position is 34 days out of date.

Length 20 m.

Type: Sailing vessel. MMSI: 232006110.

Date/timePositionNaut miles runAvg speedWind from/ knotsBaromVisibWave heightAir tempDewpointWater temp
2018-May-15 09:37N 50°52' W 001°19'0 0.6
2018-May-15 09:26N 50°52' W 001°19'3 4.8
2018-May-15 08:55N 50°49' W 001°18'3 6.5
2018-May-15 08:30N 50°47' W 001°18'1 2.9
2018-May-15 07:59N 50°45' W 001°18'0 0.0
2018-May-14 15:33N 50°45' W 001°18'0 0.0
2018-May-14 15:24N 50°45' W 001°18'0 0.0
2018-May-14 15:00N 50°45' W 001°18'0 0.0
2018-May-14 14:30N 50°45' W 001°18'0 0.0
2018-May-13 07:36N 50°45' W 001°18'0 0.0
2018-May-13 07:27N 50°45' W 001°18'0 0.0
2018-May-13 07:00N 50°45' W 001°18'2 3.6
2018-May-13 06:29N 50°46' W 001°20'2 2.3
2018-May-13 05:47N 50°47' W 001°18'2 4.9
2018-May-13 05:28N 50°49' W 001°17'4 6.7
2018-May-13 04:57N 50°51' W 001°21'3 5.7
2018-May-13 04:28N 50°53' W 001°24'4 6.7
2018-May-13 03:56N 50°51' W 001°20'3 7.1
2018-May-13 03:30N 50°48' W 001°17'2 4.5
2018-May-13 03:00N 50°46' W 001°17'3 5.7
2018-May-13 02:30N 50°46' W 001°12'2 4.8
2018-May-13 02:00N 50°46' W 001°08'2 3.3
2018-May-13 01:30N 50°46' W 001°11'4 7.3
2018-May-13 01:00N 50°46' W 001°17'3 5.6
2018-May-13 00:31N 50°46' W 001°21'3 5.1
2018-May-13 00:00N 50°45' W 001°25'4 0.5
2018-May-12 16:00N 50°46' W 001°19'1 0.9
2018-May-12 15:23N 50°46' W 001°18'1 1.5
2018-May-12 14:54N 50°47' W 001°19'3 6.4
2018-May-12 14:30N 50°45' W 001°22'188 6.0
2018-May-11 07:09N 48°40' W 004°59'1 6.7
2018-May-11 07:00N 48°40' W 004°60'3 6.5
2018-May-11 06:30N 48°37' W 005°04'4 6.0
2018-May-11 05:53N 48°35' W 005°08'  

Dump ship's entire track history